Time;durP1;ratioP1;P1;durP2;ratioP2;P2;SDS_P1;SDS_P2;PMS_P1;PMS_P2;Temp;Humidity;BMP_temperature;BMP_pressure;BME280_temperature;BME280_humidity;BME280_pressure;Samples;Min_cycle;Max_cycle;Signal;HPM_P1;HPM_P2
2022/10/31 00:00:49;;;;;;;11.38;3.63;;;;;;;10.53;67.51;93381.63;2054555;69;20218;-76
2022/10/31 00:03:16;;;;;;;11.27;3.65;;;;;;;10.84;66.78;93370.44;2054708;69;20200;-76
2022/10/31 00:05:51;;;;;;;14.48;3.92;;;;;;;10.83;66.80;93380.25;2054610;69;20153;-77
2022/10/31 00:08:17;;;;;;;13.95;4.00;;;;;;;10.68;66.73;93378.50;2054550;69;20265;-77
2022/10/31 00:10:44;;;;;;;11.73;4.50;;;;;;;10.64;67.05;93373.31;2054754;69;20601;-77
2022/10/31 00:13:11;;;;;;;14.32;4.40;;;;;;;10.60;66.63;93383.56;2054697;69;20241;-77
2022/10/31 00:15:38;;;;;;;14.68;3.55;;;;;;;10.50;68.30;93382.84;2054501;69;20637;-77
2022/10/31 00:18:05;;;;;;;10.10;3.42;;;;;;;10.53;66.76;93379.56;2054658;69;20165;-77
2022/10/31 00:20:31;;;;;;;9.68;3.28;;;;;;;10.56;67.18;93384.00;2054025;69;20610;-76
2022/10/31 00:23:02;;;;;;;10.23;3.70;;;;;;;10.66;66.77;93383.97;2053840;70;20165;-77
2022/10/31 00:25:29;;;;;;;13.30;3.72;;;;;;;10.53;67.60;93379.56;2054422;69;20664;-76
2022/10/31 00:27:55;;;;;;;10.63;3.80;;;;;;;10.49;67.18;93382.09;2054355;69;20154;-76
2022/10/31 00:30:21;;;;;;;12.75;3.30;;;;;;;10.43;67.16;93387.28;2054224;69;20206;-77
2022/10/31 00:32:47;;;;;;;13.10;4.50;;;;;;;10.13;68.82;93377.34;2054157;69;20141;-77
2022/10/31 00:35:12;;;;;;;11.75;3.38;;;;;;;10.52;68.05;93378.06;2054232;69;20150;-78
2022/10/31 00:37:38;;;;;;;19.52;4.13;;;;;;;10.40;68.48;93374.38;2054376;69;20264;-78
2022/10/31 00:40:04;;;;;;;10.75;3.60;;;;;;;10.45;68.48;93379.00;2054925;69;20146;-78
2022/10/31 00:42:30;;;;;;;12.75;3.55;;;;;;;10.44;68.35;93380.31;2055601;69;20153;-78
2022/10/31 00:44:57;;;;;;;11.25;3.72;;;;;;;10.51;67.69;93385.06;2055472;69;20582;-77
2022/10/31 00:47:23;;;;;;;10.13;3.30;;;;;;;10.51;67.73;93375.88;2054833;69;20142;-77
2022/10/31 00:49:48;;;;;;;13.70;3.95;;;;;;;10.51;67.26;93382.22;2055452;69;20157;-78
2022/10/31 00:52:15;;;;;;;11.25;3.42;;;;;;;10.52;66.59;93383.72;2055205;69;20169;-77
2022/10/31 00:54:41;;;;;;;9.77;3.08;;;;;;;10.44;66.57;93383.13;2054846;69;20173;-77
2022/10/31 00:57:07;;;;;;;12.30;3.63;;;;;;;10.41;67.88;93376.63;2055154;69;20498;-77
2022/10/31 00:59:32;;;;;;;8.35;3.47;;;;;;;10.43;66.58;93379.56;2055195;69;20126;-77
2022/10/31 01:01:58;;;;;;;12.05;3.05;;;;;;;10.55;67.40;93382.53;2055298;69;20165;-77
2022/10/31 01:04:24;;;;;;;11.05;3.67;;;;;;;10.56;66.79;93378.38;2054832;69;20149;-77
2022/10/31 01:06:52;;;;;;;11.43;3.13;;;;;;;10.24;68.30;93376.00;2055233;69;20613;-78
2022/10/31 01:09:20;;;;;;;10.05;3.70;;;;;;;10.39;68.24;93373.63;2055436;69;20141;-78
2022/10/31 01:11:47;;;;;;;11.07;3.60;;;;;;;10.43;67.15;93376.75;2052138;69;20248;-77
2022/10/31 01:14:13;;;;;;;12.15;3.50;;;;;;;10.38;66.97;93374.25;2054723;69;20241;-77
2022/10/31 01:16:40;;;;;;;10.48;3.70;;;;;;;10.35;66.40;93370.53;2054761;69;20193;-77
2022/10/31 01:19:06;;;;;;;11.95;3.40;;;;;;;10.44;67.71;93374.66;2054395;69;20142;-78
2022/10/31 01:21:32;;;;;;;14.75;3.47;;;;;;;10.54;66.85;93380.31;2054419;69;20150;-77
2022/10/31 01:24:01;;;;;;;13.43;3.40;;;;;;;10.66;66.21;93373.44;2054641;70;20568;-77
2022/10/31 01:26:33;;;;;;;10.35;4.20;;;;;;;10.60;66.50;93366.66;2055138;69;20145;-77
2022/10/31 01:29:01;;;;;;;9.13;3.50;;;;;;;10.39;67.59;93365.19;2052297;70;20173;-77
2022/10/31 01:31:29;;;;;;;14.93;3.83;;;;;;;10.28;67.58;93368.63;2055699;69;20562;-77
2022/10/31 01:33:57;;;;;;;10.57;3.10;;;;;;;10.27;67.90;93363.59;2055514;69;20142;-78
2022/10/31 01:36:35;;;;;;;11.38;3.17;;;;;;;10.35;67.62;93366.97;2054813;70;20584;-76
2022/10/31 01:39:07;;;;;;;13.20;3.60;;;;;;;10.29;67.73;93363.75;2055989;69;20145;-77
2022/10/31 01:41:36;;;;;;;9.75;3.20;;;;;;;10.27;67.49;93358.72;2055459;69;20185;-76
2022/10/31 01:44:23;;;;;;;13.18;3.20;;;;;;;10.33;66.87;93367.59;2054956;69;20142;-77
2022/10/31 01:46:48;;;;;;;12.32;3.30;;;;;;;10.27;68.26;93357.97;2055074;69;20288;-77
2022/10/31 01:49:18;;;;;;;8.07;3.22;;;;;;;10.36;66.29;93360.03;2054547;69;20614;-77
2022/10/31 01:51:56;;;;;;;12.75;3.03;;;;;;;10.19;67.57;93363.72;2054096;69;20153;-77
2022/10/31 01:54:26;;;;;;;9.35;2.88;;;;;;;10.32;66.76;93365.38;2054231;69;20522;-78
2022/10/31 01:56:55;;;;;;;10.10;3.10;;;;;;;10.33;68.82;93361.97;2053940;69;20582;-77
2022/10/31 01:59:23;;;;;;;11.32;3.40;;;;;;;10.25;67.91;93366.25;2054234;70;20153;-77
2022/10/31 02:01:50;;;;;;;8.77;2.63;;;;;;;10.32;67.41;93362.56;2054351;69;20633;-77
2022/10/31 02:04:17;;;;;;;14.93;3.90;;;;;;;10.21;67.47;93357.50;2054958;69;20225;-77
2022/10/31 02:06:52;;;;;;;13.27;3.13;;;;;;;10.24;67.55;93361.94;2053911;69;20198;-78
2022/10/31 02:09:23;;;;;;;13.57;3.67;;;;;;;10.28;67.32;93353.81;2054207;69;20284;-77
2022/10/31 02:11:54;;;;;;;9.60;2.88;;;;;;;10.18;66.76;93351.00;2054256;69;20170;-78
2022/10/31 02:14:29;;;;;;;8.50;3.20;;;;;;;10.16;67.49;93354.38;2054152;69;20154;-77
2022/10/31 02:16:55;;;;;;;9.68;3.70;;;;;;;10.32;66.77;93359.75;2053783;69;20606;-77
2022/10/31 02:19:45;;;;;;;10.35;3.47;;;;;;;10.15;66.82;93352.16;2054392;69;20138;-78
2022/10/31 02:22:38;;;;;;;10.32;2.85;;;;;;;10.17;67.22;93355.13;2054723;69;20154;-77
2022/10/31 02:25:28;;;;;;;9.25;3.47;;;;;;;9.96;68.10;93358.53;2054103;69;20157;-76
2022/10/31 02:28:15;;;;;;;12.40;3.88;;;;;;;10.07;67.61;93357.94;2054932;69;20301;-78
2022/10/31 02:31:05;;;;;;;9.02;2.65;;;;;;;9.98;67.87;93353.03;2054507;69;20285;-78
2022/10/31 02:33:45;;;;;;;10.30;3.03;;;;;;;9.94;69.01;93352.75;2054722;69;20165;-77
2022/10/31 02:36:19;;;;;;;10.00;2.95;;;;;;;10.05;67.75;93354.97;2053861;69;20169;-77
2022/10/31 02:39:34;;;;;;;10.55;3.40;;;;;;;10.08;68.12;93355.84;2054252;69;20558;-77
2022/10/31 02:42:13;;;;;;;11.70;2.85;;;;;;;9.95;67.50;93359.13;2052230;70;20197;-77
2022/10/31 02:44:42;;;;;;;8.85;3.25;;;;;;;10.02;67.46;93347.72;2054903;69;20152;-78
2022/10/31 02:47:15;;;;;;;10.60;2.60;;;;;;;9.89;68.34;93350.97;2054121;69;20169;-78
2022/10/31 02:49:56;;;;;;;9.65;2.70;;;;;;;9.98;68.51;93349.50;2054173;69;20208;-77
2022/10/31 02:52:25;;;;;;;9.25;3.30;;;;;;;10.00;67.21;93353.22;2055023;69;20176;-78
2022/10/31 02:54:51;;;;;;;12.75;3.10;;;;;;;10.00;67.32;93355.28;2051525;70;20134;-76
2022/10/31 02:57:24;;;;;;;6.70;2.50;;;;;;;9.97;67.07;93356.47;2054180;69;20149;-78
2022/10/31 03:00:05;;;;;;;16.17;3.28;;;;;;;9.89;68.65;93351.72;2054243;69;20149;-77
2022/10/31 03:03:44;;;;;;;8.75;2.33;;;;;;;9.77;67.94;93359.25;2054189;69;20636;-78
2022/10/31 03:06:30;;;;;;;9.57;2.60;;;;;;;9.91;67.45;93354.69;2043610;70;20667;-77
2022/10/31 03:09:02;;;;;;;11.43;3.05;;;;;;;9.72;68.47;93353.94;2040853;70;20166;-79
2022/10/31 03:11:56;;;;;;;8.32;2.88;;;;;;;9.91;68.87;93359.56;2044021;70;20305;-79
2022/10/31 03:14:31;;;;;;;9.23;2.88;;;;;;;9.88;67.93;93355.13;2041230;70;20666;-78
2022/10/31 03:17:05;;;;;;;12.00;3.22;;;;;;;9.89;67.57;93359.41;2041199;70;20784;-78
2022/10/31 03:19:39;;;;;;;;;;;;;;;9.85;67.56;93357.06;2044046;70;20233;-78
2022/10/31 03:22:10;;;;;;;;;;;;;;;9.91;67.17;93363.13;2041280;70;20078;-78
2022/10/31 03:24:39;;;;;;;12.50;2.90;;;;;;;9.87;68.30;93362.09;2041119;70;20051;-76
2022/10/31 03:27:08;;;;;;;9.88;2.70;;;;;;;9.68;68.04;93355.09;2041306;70;20163;-78
2022/10/31 03:29:37;;;;;;;7.18;2.50;;;;;;;9.79;67.99;93361.47;2041314;70;20535;-77
2022/10/31 03:32:07;;;;;;;11.63;2.95;;;;;;;9.86;68.13;93358.53;2041611;70;20162;-79
2022/10/31 03:34:37;;;;;;;11.77;3.10;;;;;;;9.93;67.39;93354.81;2044556;70;20154;-77
2022/10/31 03:37:10;;;;;;;9.80;2.83;;;;;;;9.64;68.60;93363.25;2048444;70;20150;-78
2022/10/31 03:39:39;;;;;;;6.05;3.22;;;;;;;9.69;69.35;93361.47;2054321;69;20146;-77
2022/10/31 03:42:24;;;;;;;7.88;2.95;;;;;;;9.91;68.04;93363.13;2054668;69;20246;-79
2022/10/31 03:45:17;;;;;;;7.15;2.30;;;;;;;9.75;68.25;93364.72;2054887;69;20225;-78
2022/10/31 03:47:43;;;;;;;7.07;2.70;;;;;;;9.74;67.80;93360.44;2055011;69;20236;-77
2022/10/31 03:50:13;;;;;;;5.97;2.42;;;;;;;9.76;67.98;93369.03;2054359;69;20580;-77
2022/10/31 03:53:00;;;;;;;16.55;2.78;;;;;;;9.71;67.17;93369.31;2051609;70;20161;-77
2022/10/31 03:55:50;;;;;;;8.43;2.55;;;;;;;9.81;67.04;93364.47;2051746;70;20205;-77
2022/10/31 03:58:42;;;;;;;9.10;2.80;;;;;;;9.78;67.48;93365.63;2055024;69;20514;-78
2022/10/31 04:01:14;;;;;;;7.38;2.45;;;;;;;9.74;67.39;93366.06;2054426;69;20193;-77
2022/10/31 04:03:42;;;;;;;7.13;2.50;;;;;;;9.62;67.83;93374.34;2054547;69;20150;-77
2022/10/31 04:06:14;;;;;;;9.75;2.90;;;;;;;9.56;67.97;93370.31;2054139;69;20225;-77
2022/10/31 04:08:45;;;;;;;7.85;2.83;;;;;;;9.64;67.63;93371.66;2054880;69;20149;-77
2022/10/31 04:11:18;;;;;;;10.90;2.75;;;;;;;9.59;67.96;93371.97;2054251;69;20253;-77
2022/10/31 04:13:49;;;;;;;9.52;2.70;;;;;;;9.62;68.22;93373.56;2054426;69;20150;-77
2022/10/31 04:16:21;;;;;;;10.38;3.22;;;;;;;9.29;69.04;93367.59;2051768;70;20154;-77
2022/10/31 04:18:48;;;;;;;10.63;2.88;;;;;;;9.59;67.91;93369.88;2054817;69;20141;-77
2022/10/31 04:21:16;;;;;;;5.72;2.50;;;;;;;9.43;68.18;93369.41;2054224;69;20161;-77
2022/10/31 04:23:42;;;;;;;9.75;3.15;;;;;;;9.60;67.64;93376.25;2051512;70;20150;-77
2022/10/31 04:26:14;;;;;;;11.57;3.72;;;;;;;9.74;67.29;93371.69;2054189;69;20156;-77
2022/10/31 04:28:42;;;;;;;10.00;3.45;;;;;;;9.66;67.38;93371.06;2054834;69;20166;-77
2022/10/31 04:31:10;;;;;;;8.70;3.03;;;;;;;9.63;67.50;93372.28;2054305;69;20741;-76
2022/10/31 04:33:37;;;;;;;9.35;2.88;;;;;;;9.64;67.18;93368.84;2054295;69;20593;-77
2022/10/31 04:36:04;;;;;;;9.10;3.42;;;;;;;9.48;68.16;93369.69;2054039;69;20160;-77
2022/10/31 04:38:30;;;;;;;10.38;3.20;;;;;;;9.50;68.82;93370.63;2054327;69;20175;-77
2022/10/31 04:40:56;;;;;;;8.88;2.83;;;;;;;9.53;67.98;93368.69;2054389;69;20521;-77
2022/10/31 04:43:52;;;;;;;11.60;3.20;;;;;;;9.53;67.42;93357.44;2054907;69;20287;-77
2022/10/31 04:46:18;;;;;;;13.05;3.38;;;;;;;9.57;67.15;93363.38;2054376;69;20308;-77
2022/10/31 04:48:44;;;;;;;11.18;3.55;;;;;;;9.37;68.27;93368.22;2054406;69;20153;-78
2022/10/31 04:51:10;;;;;;;11.82;3.42;;;;;;;9.53;68.14;93363.06;2054245;69;20157;-77
2022/10/31 04:53:36;;;;;;;8.52;3.03;;;;;;;9.50;68.49;93362.19;2051565;70;20671;-77
2022/10/31 04:56:20;;;;;;;14.48;3.72;;;;;;;9.42;68.48;93358.75;2054811;70;20482;-77
2022/10/31 04:58:49;;;;;;;11.00;3.15;;;;;;;9.51;67.95;93357.28;2054175;69;20233;-78
2022/10/31 05:01:15;;;;;;;10.00;4.22;;;;;;;9.51;68.33;93358.03;2054320;69;20146;-77
2022/10/31 05:03:40;;;;;;;9.20;3.72;;;;;;;9.53;67.60;93358.19;2054270;69;20211;-77
2022/10/31 05:06:07;;;;;;;9.73;3.70;;;;;;;9.59;66.93;93358.66;2054135;69;20229;-78
2022/10/31 05:08:32;;;;;;;9.23;3.47;;;;;;;9.65;66.18;93358.34;2054767;69;20180;-78
2022/10/31 05:11:02;;;;;;;10.30;4.00;;;;;;;9.47;66.71;93359.78;2054289;69;20537;-77
2022/10/31 05:13:28;;;;;;;13.80;3.85;;;;;;;9.48;66.91;93356.38;2054087;69;20158;-76
2022/10/31 05:16:06;;;;;;;12.95;3.67;;;;;;;9.39;67.21;93359.91;2054753;69;20153;-79
2022/10/31 05:19:03;;;;;;;14.45;3.50;;;;;;;9.39;68.09;93355.06;2054701;69;20648;-79
2022/10/31 05:21:47;;;;;;;25.20;14.02;;;;;;;9.47;66.93;93352.09;2054523;69;20145;-79
2022/10/31 05:24:14;;;;;;;23.02;10.52;;;;;;;9.49;68.17;93351.53;2052647;70;20158;-79
2022/10/31 05:26:46;;;;;;;13.20;5.50;;;;;;;9.57;67.55;93349.31;2051991;69;20174;-79
2022/10/31 05:29:12;;;;;;;10.20;5.22;;;;;;;9.48;66.95;93347.97;2051364;70;20135;-79
2022/10/31 05:31:38;;;;;;;13.38;5.25;;;;;;;9.43;66.64;93348.97;2051228;69;20220;-79
2022/10/31 05:34:06;;;;;;;15.27;4.97;;;;;;;9.40;67.54;93350.19;2051314;69;20289;-79
2022/10/31 05:36:53;;;;;;;12.75;5.55;;;;;;;9.28;67.64;93344.38;2051368;70;20198;-79
2022/10/31 05:39:21;;;;;;;13.07;5.17;;;;;;;9.30;67.65;93355.00;2050677;70;20142;-76
2022/10/31 05:41:52;;;;;;;16.63;6.28;;;;;;;9.23;67.99;93348.19;2048005;70;20166;-78
2022/10/31 05:44:20;;;;;;;16.27;5.90;;;;;;;9.27;68.89;93347.78;2048448;70;20160;-78
2022/10/31 05:47:00;;;;;;;12.45;6.18;;;;;;;9.23;67.54;93350.28;2051255;69;20146;-77
2022/10/31 05:49:31;;;;;;;14.88;7.00;;;;;;;9.30;68.49;93349.41;2051805;69;20162;-78
2022/10/31 05:52:17;;;;;;;15.15;5.90;;;;;;;9.31;67.95;93348.09;2051877;70;20222;-79
2022/10/31 05:54:50;;;;;;;14.63;6.22;;;;;;;9.36;67.85;93352.69;2051398;69;20154;-77
2022/10/31 05:57:17;;;;;;;17.38;6.28;;;;;;;9.23;68.15;93353.09;2051508;69;20610;-77
2022/10/31 05:59:42;;;;;;;15.60;6.63;;;;;;;9.39;66.64;93355.06;2051430;70;20633;-78
2022/10/31 06:02:08;;;;;;;21.02;7.00;;;;;;;9.30;68.29;93344.53;2051409;70;20178;-78
2022/10/31 06:04:53;;;;;;;16.23;5.95;;;;;;;9.29;68.37;93353.53;2051909;70;20205;-78
2022/10/31 06:07:18;;;;;;;14.98;6.50;;;;;;;9.30;67.26;93349.41;2051309;70;20181;-78
2022/10/31 06:09:44;;;;;;;17.50;6.40;;;;;;;9.26;68.66;93349.09;2051196;70;20166;-77
2022/10/31 06:12:10;;;;;;;12.50;5.47;;;;;;;9.38;67.72;93361.25;2051244;70;20174;-77
2022/10/31 06:14:54;;;;;;;13.98;5.00;;;;;;;9.36;68.42;93352.69;2051972;70;20157;-78
2022/10/31 06:17:19;;;;;;;11.80;5.20;;;;;;;9.42;67.51;93350.31;2051412;70;20154;-79
2022/10/31 06:19:48;;;;;;;13.02;5.13;;;;;;;9.38;68.36;93359.19;2051988;70;20599;-76
2022/10/31 06:22:26;;;;;;;18.35;6.97;;;;;;;9.25;67.58;93353.97;2048586;70;20170;-77
2022/10/31 06:24:51;;;;;;;15.05;6.60;;;;;;;9.24;68.36;93354.56;2053926;70;20521;-77
2022/10/31 06:27:33;;;;;;;18.88;6.63;;;;;;;9.13;68.70;93353.06;2052196;70;20505;-75
2022/10/31 06:30:06;;;;;;;26.23;12.47;;;;;;;9.30;68.23;93352.97;2054743;69;20241;-75
2022/10/31 06:32:34;;;;;;;20.42;7.82;;;;;;;9.40;67.97;93361.41;2054610;69;20158;-76
2022/10/31 06:35:06;;;;;;;14.48;6.20;;;;;;;9.37;68.28;93360.50;2054427;69;20532;-77
2022/10/31 06:37:34;;;;;;;21.15;9.20;;;;;;;9.29;67.96;93359.91;2051823;70;20291;-76
2022/10/31 06:40:14;;;;;;;16.83;7.75;;;;;;;9.25;68.75;93358.84;2054497;69;20553;-77
2022/10/31 06:43:00;;;;;;;18.15;6.95;;;;;;;9.22;68.63;93349.53;2055052;69;20165;-77
2022/10/31 06:45:27;;;;;;;22.77;8.52;;;;;;;9.13;68.85;93350.25;2054675;69;20160;-78
2022/10/31 06:48:11;;;;;;;19.75;6.93;;;;;;;9.18;68.79;93352.03;2055329;69;20204;-77
2022/10/31 06:50:42;;;;;;;17.67;8.32;;;;;;;9.11;68.94;93359.25;2054558;69;20142;-78
2022/10/31 06:53:09;;;;;;;22.65;10.27;;;;;;;9.21;69.62;93355.72;2054513;69;20173;-77
2022/10/31 06:55:34;;;;;;;27.88;14.60;;;;;;;9.23;68.88;93358.72;2054599;70;20142;-77
2022/10/31 06:58:01;;;;;;;23.90;13.23;;;;;;;9.34;68.16;93360.94;2054704;69;20142;-78
2022/10/31 07:00:30;;;;;;;25.85;9.75;;;;;;;9.21;69.12;93356.50;2054532;69;20166;-78
2022/10/31 07:03:06;;;;;;;21.63;9.60;;;;;;;9.34;69.22;93353.25;2054635;69;20142;-78
2022/10/31 07:05:33;;;;;;;17.15;9.00;;;;;;;9.26;69.66;93361.09;2054526;69;20621;-79
2022/10/31 07:08:01;;;;;;;20.92;9.43;;;;;;;9.35;69.50;93362.44;2054502;69;20153;-78
2022/10/31 07:10:29;;;;;;;19.10;9.23;;;;;;;9.40;69.43;93362.16;2055202;69;20150;-79
2022/10/31 07:13:04;;;;;;;20.42;8.25;;;;;;;9.57;68.77;93369.72;2055205;69;20134;-79
2022/10/31 07:15:36;;;;;;;14.55;8.15;;;;;;;9.61;67.53;93374.91;2054946;69;20590;-78
2022/10/31 07:18:04;;;;;;;16.90;6.00;;;;;;;9.79;67.43;93362.22;2056390;69;20339;-78
2022/10/31 07:20:31;;;;;;;15.60;7.25;;;;;;;9.64;67.54;93366.03;2056932;69;20150;-78
2022/10/31 07:22:57;;;;;;;17.73;9.50;;;;;;;9.49;68.08;93362.78;2054944;69;20616;-80
2022/10/31 07:25:24;;;;;;;23.88;9.73;;;;;;;9.60;67.68;93365.75;2054937;69;20146;-78
2022/10/31 07:28:16;;;;;;;21.40;8.52;;;;;;;9.64;67.68;93365.31;2054920;70;20289;-78
2022/10/31 07:30:53;;;;;;;18.83;7.88;;;;;;;9.73;67.89;93358.22;2055265;69;20297;-78
2022/10/31 07:33:20;;;;;;;20.17;7.38;;;;;;;9.72;68.32;93363.09;2052439;69;20208;-77
2022/10/31 07:36:15;;;;;;;19.92;8.90;;;;;;;9.69;67.81;93367.09;2048522;69;20196;-77
2022/10/31 07:38:44;;;;;;;17.73;8.55;;;;;;;9.66;68.35;93363.38;2054606;69;20165;-77
2022/10/31 07:41:11;;;;;;;15.13;7.65;;;;;;;9.68;68.34;93355.09;2054688;69;20224;-78
2022/10/31 07:43:41;;;;;;;17.73;7.47;;;;;;;9.72;67.75;93363.09;2054545;69;20241;-77
2022/10/31 07:46:26;;;;;;;17.33;7.65;;;;;;;9.73;67.86;93367.41;2049306;70;20160;-77
2022/10/31 07:49:31;;;;;;;20.38;9.38;;;;;;;9.70;68.11;93360.13;2045603;70;20153;-77
2022/10/31 07:52:15;;;;;;;18.25;8.95;;;;;;;9.73;68.04;93361.03;2047557;70;20149;-77
2022/10/31 07:55:00;;;;;;;19.70;9.68;;;;;;;9.74;68.43;93363.25;2051613;70;20243;-77
2022/10/31 07:57:25;;;;;;;15.40;8.90;;;;;;;9.77;68.57;93356.44;2054462;69;20172;-77
2022/10/31 07:59:51;;;;;;;19.58;8.90;;;;;;;9.95;67.01;93357.06;2054442;69;20152;-77
2022/10/31 08:02:17;;;;;;;18.17;9.88;;;;;;;9.91;67.39;93357.50;2054419;69;20236;-78
2022/10/31 08:04:46;;;;;;;19.05;10.00;;;;;;;9.95;67.69;93354.25;2053672;69;20158;-78
2022/10/31 08:07:26;;;;;;;20.75;9.23;;;;;;;10.36;68.45;93346.69;2054224;69;20158;-79
2022/10/31 08:10:00;;;;;;;20.58;10.10;;;;;;;10.90;68.88;93356.78;2054138;70;20153;-78
2022/10/31 08:12:29;;;;;;;20.85;9.68;;;;;;;11.26;67.58;93346.56;2054255;70;20193;-78
2022/10/31 08:14:55;;;;;;;23.63;10.27;;;;;;;11.56;67.85;93347.91;2054790;69;20156;-79
2022/10/31 08:17:20;;;;;;;25.00;10.00;;;;;;;11.90;66.39;93353.03;2053601;69;20150;-77
2022/10/31 08:19:57;;;;;;;22.30;10.40;;;;;;;12.34;65.55;93343.19;2054018;69;20637;-77
2022/10/31 08:22:28;;;;;;;20.73;9.20;;;;;;;12.92;64.50;93350.34;2054183;69;20190;-79
2022/10/31 08:24:55;;;;;;;27.33;12.88;;;;;;;13.07;62.40;93344.25;2053809;69;20157;-78
2022/10/31 08:27:21;;;;;;;24.48;11.80;;;;;;;13.45;60.56;93345.16;2053732;70;20170;-80
2022/10/31 08:29:47;;;;;;;23.27;10.20;;;;;;;13.86;59.29;93342.66;2053598;70;20220;-80
2022/10/31 08:32:13;;;;;;;17.73;8.50;;;;;;;13.90;57.81;93339.31;2054263;70;20150;-79
2022/10/31 08:34:56;;;;;;;20.65;9.65;;;;;;;14.18;56.69;93340.22;2054944;69;20565;-79
2022/10/31 08:37:28;;;;;;;23.05;9.90;;;;;;;14.69;59.02;93337.47;2054772;69;20204;-79
2022/10/31 08:39:54;;;;;;;20.35;9.10;;;;;;;14.94;55.67;93334.63;2054457;69;20165;-79
2022/10/31 08:42:21;;;;;;;19.40;8.20;;;;;;;15.58;55.78;93329.44;2054367;69;20176;-79
2022/10/31 08:44:46;;;;;;;17.48;7.40;;;;;;;15.34;53.30;93341.00;2054327;69;20145;-80
2022/10/31 08:47:12;;;;;;;20.55;7.57;;;;;;;15.98;52.83;93325.88;2054339;69;20150;-81
2022/10/31 08:49:38;;;;;;;19.23;7.63;;;;;;;15.81;52.49;93328.56;2054386;69;20154;-78
2022/10/31 08:52:04;;;;;;;15.82;6.50;;;;;;;16.61;51.99;93324.72;2051483;70;20162;-79
2022/10/31 08:54:34;;;;;;;13.00;7.18;;;;;;;16.69;50.84;93310.88;2054349;69;20739;-81
2022/10/31 08:57:28;;;;;;;12.63;5.93;;;;;;;17.21;51.19;93317.59;2048248;69;20169;-81
2022/10/31 08:59:54;;;;;;;13.70;5.80;;;;;;;16.68;49.17;93324.38;2054899;69;20162;-80
2022/10/31 09:02:24;;;;;;;11.48;4.85;;;;;;;17.43;49.00;93317.91;2054815;69;20608;-80
2022/10/31 09:04:52;;;;;;;10.43;4.70;;;;;;;17.87;48.85;93318.41;2054660;69;20150;-78
2022/10/31 09:07:18;;;;;;;9.85;3.50;;;;;;;18.54;45.50;93324.84;2054639;69;20237;-79
2022/10/31 09:09:44;;;;;;;10.95;4.45;;;;;;;18.86;45.80;93312.56;2055250;69;20205;-79
2022/10/31 09:12:10;;;;;;;13.25;4.10;;;;;;;18.39;45.26;93302.13;2054743;69;20158;-79
2022/10/31 09:15:08;;;;;;;11.48;4.72;;;;;;;19.08;45.45;93304.16;2055280;69;20244;-78
2022/10/31 09:17:57;;;;;;;14.27;4.63;;;;;;;19.79;46.06;93304.75;2055244;69;20252;-78
2022/10/31 09:20:47;;;;;;;8.95;3.85;;;;;;;20.06;42.28;93291.38;2054604;69;20156;-78
2022/10/31 09:23:15;;;;;;;11.60;3.80;;;;;;;19.43;42.55;93295.53;2055175;69;20237;-78
2022/10/31 09:25:41;;;;;;;7.47;3.38;;;;;;;20.10;40.25;93299.38;2054574;69;20176;-78
2022/10/31 09:28:27;;;;;;;7.47;3.47;;;;;;;20.78;42.30;93288.81;2055127;69;20233;-79
2022/10/31 09:30:54;;;;;;;7.07;3.60;;;;;;;21.16;39.82;93286.41;2055246;69;20160;-78
2022/10/31 09:33:48;;;;;;;11.40;3.33;;;;;;;20.52;42.03;93286.53;2054634;69;20145;-79
2022/10/31 09:36:42;;;;;;;8.32;2.55;;;;;;;21.37;39.10;93284.22;2052188;69;20146;-79
2022/10/31 09:39:19;;;;;;;7.05;2.47;;;;;;;21.48;37.34;93275.22;2054725;69;20156;-79
2022/10/31 09:42:01;;;;;;;9.52;2.53;;;;;;;22.11;35.32;93276.28;2054790;69;20164;-79
2022/10/31 09:44:40;;;;;;;6.38;1.80;;;;;;;22.72;36.31;93277.88;2054622;69;20161;-79
2022/10/31 09:47:24;;;;;;;6.30;2.13;;;;;;;22.88;35.26;93271.09;2054708;69;20158;-78
2022/10/31 09:50:21;;;;;;;12.45;2.35;;;;;;;23.12;33.81;93277.41;2054733;69;20150;-78
2022/10/31 09:53:16;;;;;;;7.38;2.17;;;;;;;22.32;35.61;93263.25;2054555;69;20561;-81
2022/10/31 09:55:46;;;;;;;8.88;2.00;;;;;;;23.27;35.72;93272.72;2054667;69;20153;-78
2022/10/31 09:58:19;;;;;;;6.88;2.42;;;;;;;23.59;34.14;93261.97;2054636;69;20516;-78
2022/10/31 10:00:47;;;;;;;6.97;2.75;;;;;;;22.71;34.64;93262.06;2054614;69;20197;-78
2022/10/31 10:03:32;;;;;;;9.68;3.45;;;;;;;23.97;33.98;93261.31;2054575;69;20146;-78
2022/10/31 10:06:14;;;;;;;9.88;3.03;;;;;;;24.75;33.70;93259.88;2054545;69;20146;-78
2022/10/31 10:09:07;;;;;;;7.93;3.20;;;;;;;24.81;33.95;93260.69;2054532;70;20149;-78
2022/10/31 10:12:05;;;;;;;7.20;2.65;;;;;;;24.84;33.35;93258.56;2054573;69;20158;-78
2022/10/31 10:14:41;;;;;;;9.02;2.50;;;;;;;24.07;33.59;93267.25;2055147;69;20146;-78
2022/10/31 10:17:15;;;;;;;7.38;2.40;;;;;;;23.84;33.39;93257.47;2055138;69;20148;-77
2022/10/31 10:19:43;;;;;;;7.38;2.30;;;;;;;24.00;32.33;93254.16;2055187;69;20142;-78
2022/10/31 10:22:33;;;;;;;7.95;2.58;;;;;;;23.53;33.12;93238.81;2054887;69;20146;-78
2022/10/31 10:25:09;;;;;;;9.00;2.55;;;;;;;24.00;34.00;93250.56;2055096;69;20212;-77
2022/10/31 10:27:40;;;;;;;10.10;2.70;;;;;;;23.24;33.60;93245.38;2055108;69;20161;-78
2022/10/31 10:30:21;;;;;;;8.70;2.70;;;;;;;23.70;32.95;93236.31;2056213;69;20154;-77
2022/10/31 10:32:51;;;;;;;6.20;2.40;;;;;;;23.92;32.91;93225.28;2055270;69;20150;-77
2022/10/31 10:35:29;;;;;;;9.98;2.30;;;;;;;23.89;33.68;93226.66;2055280;69;20183;-77
2022/10/31 10:38:09;;;;;;;8.48;2.40;;;;;;;24.11;33.99;93222.75;2055007;69;20138;-76
2022/10/31 10:40:35;;;;;;;10.52;2.35;;;;;;;24.41;33.26;93226.19;2055100;69;20141;-76
2022/10/31 10:48:42;;;;;;;8.82;3.05;;;;;;;25.89;30.83;93224.09;2055130;69;20142;-78
2022/10/31 10:51:18;;;;;;;8.80;2.97;;;;;;;26.54;29.43;93216.13;2055010;69;20540;-79
2022/10/31 10:54:04;;;;;;;8.18;2.65;;;;;;;29.23;26.91;93222.38;2055145;69;20217;-76
2022/10/31 10:56:44;;;;;;;11.70;2.33;;;;;;;29.98;24.79;93217.88;2055075;69;20638;-76
2022/10/31 10:59:16;;;;;;;7.38;1.98;;;;;;;31.23;22.21;93212.00;2054977;69;20177;-77
2022/10/31 11:01:41;;;;;;;6.40;1.90;;;;;;;31.28;21.88;93207.63;2054728;69;20150;-77
2022/10/31 11:04:25;;;;;;;8.82;2.15;;;;;;;30.43;23.45;93200.97;2048511;70;20151;-78
2022/10/31 11:07:17;;;;;;;6.82;2.50;;;;;;;28.18;26.06;93191.09;2048379;69;20174;-75
2022/10/31 11:09:43;;;;;;;10.52;3.00;;;;;;;28.55;25.62;93189.03;2047950;70;20166;-76
2022/10/31 11:12:16;;;;;;;8.05;2.78;;;;;;;29.17;24.63;93193.38;2048529;70;20143;-76
2022/10/31 11:14:49;;;;;;;8.05;2.65;;;;;;;30.45;23.01;93185.72;2048530;70;20143;-76
2022/10/31 11:17:41;;;;;;;9.02;2.90;;;;;;;30.94;22.20;93194.81;2048772;70;20563;-76
2022/10/31 11:20:12;;;;;;;10.73;2.78;;;;;;;32.04;22.79;93187.94;2048839;70;20491;-76
2022/10/31 11:22:39;;;;;;;7.30;2.08;;;;;;;32.37;21.87;93179.50;2048488;69;20206;-76
2022/10/31 11:25:24;;;;;;;8.60;2.30;;;;;;;32.21;22.38;93179.72;2048445;70;20218;-77
2022/10/31 11:28:01;;;;;;;6.55;2.13;;;;;;;34.35;21.54;93178.25;2048419;70;20180;-78
2022/10/31 11:30:27;;;;;;;9.85;2.25;;;;;;;34.75;19.24;93178.88;2048428;70;20154;-79
2022/10/31 11:32:53;;;;;;;7.72;1.90;;;;;;;35.90;18.09;93168.66;2048391;70;20141;-77
2022/10/31 11:35:22;;;;;;;9.68;2.20;;;;;;;32.80;20.49;93164.28;2048387;70;20186;-78
2022/10/31 11:37:49;;;;;;;7.63;3.63;;;;;;;33.69;21.14;93163.53;2048258;70;20150;-79
2022/10/31 11:40:24;;;;;;;6.13;2.13;;;;;;;34.91;19.25;93158.00;2047869;70;20523;-79
2022/10/31 11:42:52;;;;;;;8.68;1.70;;;;;;;33.70;20.43;93159.13;2048441;70;20166;-79
2022/10/31 11:45:24;;;;;;;5.13;2.00;;;;;;;34.56;20.33;93164.69;2047500;70;20201;-78
2022/10/31 11:47:52;;;;;;;8.27;2.10;;;;;;;34.67;19.82;93156.38;2048045;70;20170;-77
2022/10/31 11:50:28;;;;;;;7.28;2.25;;;;;;;37.56;17.04;93156.25;2051066;70;20159;-81
2022/10/31 11:52:55;;;;;;;6.38;2.17;;;;;;;36.18;17.85;93157.66;2051283;70;20186;-77
2022/10/31 11:55:29;;;;;;;8.70;2.15;;;;;;;35.46;19.92;93144.22;2051547;70;20654;-77
2022/10/31 11:57:55;;;;;;;9.70;2.05;;;;;;;37.75;17.91;93144.59;2051441;69;20138;-77
2022/10/31 12:00:37;;;;;;;8.57;2.90;;;;;;;38.35;16.34;93137.31;2050735;69;20170;-77
2022/10/31 12:03:40;;;;;;;12.55;2.05;;;;;;;39.60;16.33;93133.06;2051485;69;20246;-78
2022/10/31 12:06:22;;;;;;;8.70;1.95;;;;;;;36.11;20.67;93113.91;2050921;70;20325;-77